METAR Data
IDs: Format: Raw Decoded Include TAF

Data at: 0916 UTC 10 Dec 2022

METAR for:KDUH (Toledo/Suburban Arpt, MI, US)
Text:KDUH 100855Z AUTO 03006KT 10SM OVC011 01/00 A3025 RMK AO2 T00061005
Temperature: 0.6°C ( 33°F)
Dewpoint: -0.5°C ( 31°F) [RH = 92%]
Pressure (altimeter):30.25 inches Hg (1024.5 mb)
Winds:from the NNE (30 degrees) at 7 MPH (6 knots; 3.1 m/s)
Visibility:10 or more sm (16+ km)
Ceiling:1100 feet AGL
Clouds: overcast cloud deck at 1100 feet AGL
QC Flag:automated observation with no human augmentation